Terminal Aerodrome Forecast
Issued by NWS Raleigh/Durham, NC

Home | Current Version | Previous Version | Text Only | Print | Product List | Glossary On
Versions: 1 2 3 4 5 6 7 8 9 10 11 12
000
FTUS42 KRAH 120533
TAFGSO
TAF
KGSO 120533Z 1206/1306 20007KT P6SM FEW200
     FM121400 27008G16KT P6SM BKN120
     FM121600 29012G21KT P6SM BKN040 BKN090
     FM130000 29012G22KT P6SM SKC=

USA.gov is the U.S. government's official web portal to all federal, state and local government web resources and services.